Time;durP1;ratioP1;P1;durP2;ratioP2;P2;SDS_P1;SDS_P2;PMS_P1;PMS_P2;Temp;Humidity;BMP_temperature;BMP_pressure;BME280_temperature;BME280_humidity;BME280_pressure;Samples;Min_cycle;Max_cycle;Signal;HPM_P1;HPM_P2
2021/11/16 00:01:37;;;;;;;3.30;1.67;;;;;;;-1.28;70.34;101362.75;5030339;28;20045;-51
2021/11/16 00:04:04;;;;;;;2.58;1.45;;;;;;;-1.32;70.35;101358.34;5026526;28;20511;-52
2021/11/16 00:06:30;;;;;;;1.73;1.10;;;;;;;-1.35;70.38;101353.97;5030923;28;20048;-54
2021/11/16 00:08:56;;;;;;;1.77;1.15;;;;;;;-1.45;70.72;101341.66;5036650;28;20086;-50
2021/11/16 00:11:22;;;;;;;1.48;1.00;;;;;;;-1.38;70.69;101350.44;5034747;28;20557;-48
2021/11/16 00:13:49;;;;;;;1.13;0.93;;;;;;;-1.40;70.99;101360.56;5032559;28;20041;-50
2021/11/16 00:16:16;;;;;;;2.03;1.35;;;;;;;-1.37;70.75;101352.19;5023079;28;20064;-49
2021/11/16 00:18:42;;;;;;;1.27;0.95;;;;;;;-1.36;70.74;101352.22;5042815;28;20060;-51
2021/11/16 00:21:11;;;;;;;2.70;1.05;;;;;;;-1.34;70.62;101358.28;5026679;28;20528;-52
2021/11/16 00:23:37;;;;;;;5.50;1.30;;;;;;;-1.34;70.53;101350.63;5039379;28;20572;-48
2021/11/16 00:26:06;;;;;;;1.95;1.08;;;;;;;-1.21;70.41;101352.00;5031175;28;20152;-48
2021/11/16 00:28:33;;;;;;;3.58;1.20;;;;;;;-1.15;70.00;101351.38;5031311;28;20428;-51
2021/11/16 00:30:59;;;;;;;0.85;0.63;;;;;;;-1.15;69.63;101359.88;5036189;28;20048;-49
2021/11/16 00:33:27;;;;;;;3.60;1.27;;;;;;;-1.07;69.74;101353.41;5031778;28;20073;-47
2021/11/16 00:35:54;;;;;;;3.25;1.20;;;;;;;-0.99;69.52;101339.25;5034716;28;20513;-47
2021/11/16 00:38:21;;;;;;;1.70;0.95;;;;;;;-0.92;68.93;101332.69;5030926;28;20041;-46
2021/11/16 00:40:48;;;;;;;3.67;1.00;;;;;;;-0.89;69.04;101336.22;5022746;28;20398;-49
2021/11/16 00:43:14;;;;;;;1.75;1.20;;;;;;;-0.86;68.85;101340.59;5028322;28;20512;-47
2021/11/16 00:45:41;;;;;;;3.35;1.08;;;;;;;-0.93;68.66;101325.84;5039733;28;20556;-48
2021/11/16 00:48:08;;;;;;;1.70;1.02;;;;;;;-0.89;68.44;101308.13;5028632;28;20045;-49
2021/11/16 00:50:35;;;;;;;1.00;0.70;;;;;;;-0.83;68.25;101335.59;5028567;28;20103;-49
2021/11/16 00:53:01;;;;;;;1.38;0.98;;;;;;;-0.82;67.85;101326.25;5028066;28;20119;-49
2021/11/16 00:55:27;;;;;;;2.13;0.90;;;;;;;-0.87;67.68;101306.53;5027956;28;20152;-49
2021/11/16 00:57:53;;;;;;;1.08;0.63;;;;;;;-0.87;67.44;101311.63;5041307;28;20539;-50
2021/11/16 01:00:19;;;;;;;1.35;0.80;;;;;;;-0.87;67.50;101310.75;5028968;28;20045;-47
2021/11/16 01:02:45;;;;;;;1.88;0.90;;;;;;;-0.90;67.60;101308.09;5025653;28;20041;-49
2021/11/16 01:05:12;;;;;;;1.27;1.08;;;;;;;-0.85;67.29;101304.03;5023036;28;20104;-50
2021/11/16 01:07:40;;;;;;;1.92;0.85;;;;;;;-0.92;67.53;101296.94;5043337;28;20090;-50
2021/11/16 01:10:11;;;;;;;2.45;1.30;;;;;;;-0.87;67.02;101293.75;5016899;28;20131;-49
2021/11/16 01:12:40;;;;;;;1.38;0.98;;;;;;;-0.67;67.30;101301.28;5026939;28;20042;-49
2021/11/16 01:15:09;;;;;;;0.77;0.60;;;;;;;-0.62;66.63;101287.00;5019838;28;20096;-48
2021/11/16 01:17:37;;;;;;;1.70;1.10;;;;;;;-0.71;66.53;101277.31;5022181;28;20612;-47
2021/11/16 01:20:06;;;;;;;2.42;1.23;;;;;;;-0.67;66.60;101262.97;5033577;28;20582;-48
2021/11/16 01:22:32;;;;;;;1.75;1.17;;;;;;;-0.61;66.15;101270.84;5029287;28;20045;-47
2021/11/16 01:24:58;;;;;;;2.47;0.77;;;;;;;-0.63;66.08;101260.56;5038187;28;20042;-48
2021/11/16 01:27:25;;;;;;;2.22;1.40;;;;;;;-0.57;65.90;101249.72;5003485;28;20082;-49
2021/11/16 01:29:52;;;;;;;1.13;0.60;;;;;;;-0.49;65.73;101273.84;5045113;28;20041;-52
2021/11/16 01:32:59;;;;;;;0.82;0.63;;;;;;;-0.61;65.87;101253.84;5028298;28;20041;-51
2021/11/16 01:35:10;;;;;;;2.03;1.23;;;;;;;-0.54;66.16;101250.72;5024668;28;20170;-49
2021/11/16 01:37:37;;;;;;;2.13;1.20;;;;;;;-0.65;66.33;101239.25;5024552;28;20045;-49
2021/11/16 01:40:06;;;;;;;0.70;0.70;;;;;;;-0.56;66.56;101239.56;5030704;28;20523;-47
2021/11/16 01:42:32;;;;;;;0.90;0.55;;;;;;;-0.55;66.13;101233.63;4997635;28;20509;-47
2021/11/16 01:44:58;;;;;;;0.80;0.63;;;;;;;-0.43;65.92;101243.41;5016996;28;20041;-50
2021/11/16 01:47:24;;;;;;;1.52;0.55;;;;;;;-0.61;66.08;101227.44;5025247;28;20390;-49
2021/11/16 01:49:50;;;;;;;2.38;1.30;;;;;;;-0.38;65.80;101248.69;5026692;28;20036;-49
2021/11/16 01:52:16;;;;;;;1.98;1.00;;;;;;;-0.35;66.11;101230.91;5058616;28;20041;-50
2021/11/16 01:54:42;;;;;;;2.10;1.08;;;;;;;-0.14;65.47;101237.59;5029470;28;20054;-52
2021/11/16 01:57:08;;;;;;;1.00;0.65;;;;;;;-0.19;64.83;101218.69;5014637;28;20041;-52
2021/11/16 01:59:34;;;;;;;1.33;0.93;;;;;;;-0.27;65.44;101221.81;5025941;28;20047;-50
2021/11/16 02:02:01;;;;;;;0.98;0.68;;;;;;;-0.30;65.79;101224.25;5029598;28;20080;-50
2021/11/16 02:04:32;;;;;;;0.70;0.70;;;;;;;-0.38;65.93;101215.47;5043349;28;20187;-53
2021/11/16 02:06:58;;;;;;;1.20;0.65;;;;;;;-0.36;66.40;101213.81;5028744;28;20513;-49
2021/11/16 02:09:24;;;;;;;2.17;1.20;;;;;;;-0.30;66.31;101209.78;5026589;28;20041;-51
2021/11/16 02:11:50;;;;;;;2.05;1.20;;;;;;;-0.07;65.71;101213.13;5033077;28;20604;-52
2021/11/16 02:14:17;;;;;;;1.00;0.70;;;;;;;-0.04;64.96;101200.44;5028150;28;20133;-46
2021/11/16 02:16:45;;;;;;;1.30;1.08;;;;;;;-0.05;65.36;101206.34;5018144;28;20578;-47
2021/11/16 02:19:12;;;;;;;1.30;0.82;;;;;;;-0.11;65.56;101201.06;5031260;28;20455;-51
2021/11/16 02:21:38;;;;;;;1.48;1.10;;;;;;;-0.09;65.52;101205.41;5029562;28;20118;-46
2021/11/16 02:24:08;;;;;;;1.80;1.00;;;;;;;0.04;65.39;101193.03;5029667;28;20100;-49
2021/11/16 02:26:34;;;;;;;1.77;1.00;;;;;;;-0.01;65.56;101198.88;5033565;28;20068;-52
2021/11/16 02:29:00;;;;;;;1.42;0.98;;;;;;;-0.10;65.71;101193.44;5027314;28;20041;-48
2021/11/16 02:31:26;;;;;;;1.60;0.95;;;;;;;-0.01;66.12;101183.53;5029266;28;20120;-49
2021/11/16 02:33:52;;;;;;;1.55;0.80;;;;;;;0.05;65.38;101193.09;5035561;28;20127;-49
2021/11/16 02:36:20;;;;;;;0.98;0.85;;;;;;;-0.13;65.67;101172.03;5032604;28;20453;-48
2021/11/16 02:38:46;;;;;;;1.05;0.60;;;;;;;-0.10;66.31;101182.34;5023795;28;20490;-51
2021/11/16 02:41:12;;;;;;;2.03;0.80;;;;;;;-0.30;66.24;101155.25;5036574;28;20408;-49
2021/11/16 02:43:39;;;;;;;0.90;0.50;;;;;;;-0.19;66.61;101170.13;5030368;28;20060;-52
2021/11/16 02:46:06;;;;;;;0.55;0.55;;;;;;;-0.25;67.08;101172.47;5011032;28;20046;-49
2021/11/16 02:48:34;;;;;;;0.90;0.63;;;;;;;-0.36;67.21;101155.94;5023311;28;20042;-53
2021/11/16 02:51:06;;;;;;;0.93;0.73;;;;;;;-0.35;67.09;101157.66;5015514;28;20041;-51
2021/11/16 02:53:32;;;;;;;1.95;0.57;;;;;;;-0.49;66.93;101116.34;5037264;28;20058;-50
2021/11/16 02:55:58;;;;;;;0.75;0.50;;;;;;;-0.30;66.92;101147.59;5026914;28;20489;-48
2021/11/16 02:58:25;;;;;;;1.52;0.70;;;;;;;-0.36;67.08;101139.72;5020449;28;20034;-50
2021/11/16 03:00:56;;;;;;;1.30;0.80;;;;;;;-0.32;67.45;101136.47;5025207;28;20644;-48
2021/11/16 03:03:22;;;;;;;1.00;0.68;;;;;;;-0.28;67.14;101130.63;5027793;28;20452;-52
2021/11/16 03:05:49;;;;;;;1.23;0.55;;;;;;;-0.29;66.96;101134.88;5025160;28;20068;-52
2021/11/16 03:08:22;;;;;;;0.45;0.43;;;;;;;-0.30;67.17;101128.03;5031105;28;21908;-53
2021/11/16 03:10:51;;;;;;;0.50;0.50;;;;;;;-0.31;67.33;101115.19;5037848;28;20077;-52
2021/11/16 03:13:17;;;;;;;1.13;0.60;;;;;;;-0.40;67.02;101097.88;5029206;28;20039;-50
2021/11/16 03:15:44;;;;;;;1.88;0.80;;;;;;;-0.30;67.16;101102.47;5019516;28;20030;-50
2021/11/16 03:18:11;;;;;;;1.33;0.60;;;;;;;-0.30;67.03;101107.59;5032753;28;20096;-50
2021/11/16 03:20:38;;;;;;;0.95;0.60;;;;;;;-0.23;66.65;101093.31;5041595;28;20509;-50
2021/11/16 03:23:16;;;;;;;0.75;0.63;;;;;;;-0.29;66.80;101093.13;5028679;28;20052;-49
2021/11/16 03:25:48;;;;;;;1.10;0.70;;;;;;;-0.20;66.74;101101.06;5024309;28;20091;-51
2021/11/16 03:28:16;;;;;;;2.40;0.90;;;;;;;-0.14;66.68;101103.81;5035352;28;20469;-50
2021/11/16 03:30:43;;;;;;;1.20;0.70;;;;;;;-0.07;66.11;101087.88;5029295;28;20149;-47
2021/11/16 03:33:09;;;;;;;2.10;0.70;;;;;;;-0.13;66.17;101098.78;5023462;28;20047;-49
2021/11/16 03:35:36;;;;;;;1.55;0.77;;;;;;;-0.15;66.45;101092.72;5026035;28;20037;-51
2021/11/16 03:38:04;;;;;;;3.10;0.80;;;;;;;-0.10;66.15;101103.09;5024826;28;20080;-51
2021/11/16 03:40:33;;;;;;;1.13;0.80;;;;;;;-0.15;66.20;101102.94;5034544;28;20087;-51
2021/11/16 03:42:59;;;;;;;4.65;0.88;;;;;;;-0.31;66.51;101077.72;5042873;28;20144;-52
2021/11/16 03:45:26;;;;;;;1.52;0.80;;;;;;;-0.23;66.56;101078.84;5026059;28;20042;-48
2021/11/16 03:47:53;;;;;;;0.65;0.50;;;;;;;-0.34;66.12;101048.66;5031111;28;20104;-48
2021/11/16 03:50:23;;;;;;;1.27;0.50;;;;;;;-0.18;66.29;101079.88;5026988;28;20045;-48
2021/11/16 03:52:53;;;;;;;;;;;;;;;-0.19;66.51;101065.34;5038297;28;20049;-49
2021/11/16 03:55:19;;;;;;;1.05;0.50;;;;;;;-0.22;66.34;101061.84;5060840;28;19927;-47
2021/11/16 03:57:45;;;;;;;1.83;0.73;;;;;;;-0.21;66.66;101066.13;5024241;28;20119;-50
2021/11/16 04:00:16;;;;;;;1.60;0.63;;;;;;;-0.14;66.45;101050.16;5032036;28;20111;-47
2021/11/16 04:02:42;;;;;;;2.08;1.00;;;;;;;-0.11;66.23;101051.13;5032831;28;20037;-51
2021/11/16 04:05:10;;;;;;;1.73;0.80;;;;;;;-0.12;66.61;101045.97;5037407;28;20111;-51
2021/11/16 04:07:36;;;;;;;0.98;0.45;;;;;;;-0.12;66.47;101041.72;5021873;28;20041;-50
2021/11/16 04:10:08;;;;;;;3.05;0.70;;;;;;;-0.15;66.33;101048.41;5020971;28;20049;-49
2021/11/16 04:12:33;;;;;;;0.80;0.52;;;;;;;-0.21;66.90;101040.59;5033652;28;20045;-52
2021/11/16 04:15:00;;;;;;;0.38;0.35;;;;;;;-0.25;66.92;101034.50;5040698;28;20128;-50
2021/11/16 04:17:25;;;;;;;1.75;0.60;;;;;;;-0.31;67.21;101034.28;5016291;28;20045;-48
2021/11/16 04:19:52;;;;;;;2.97;0.90;;;;;;;-0.24;66.87;101031.13;5027167;28;20513;-51
2021/11/16 04:22:18;;;;;;;1.27;0.93;;;;;;;-0.10;66.92;101034.94;5067001;28;20061;-51
2021/11/16 04:24:43;;;;;;;0.55;0.30;;;;;;;-0.12;66.38;101038.28;5041409;28;20052;-50
2021/11/16 04:27:09;;;;;;;1.15;0.80;;;;;;;-0.19;66.63;101032.13;5039708;28;20044;-51
2021/11/16 04:29:35;;;;;;;2.55;0.82;;;;;;;-0.20;66.75;101027.81;5020775;28;20045;-56
2021/11/16 04:32:01;;;;;;;0.90;0.60;;;;;;;-0.22;66.59;101016.72;5025101;28;20048;-52
2021/11/16 04:34:27;;;;;;;4.20;1.00;;;;;;;-0.24;66.87;101020.91;5027408;28;20050;-54
2021/11/16 04:36:53;;;;;;;1.13;0.73;;;;;;;-0.34;66.80;100993.34;5031430;28;20060;-53
2021/11/16 04:39:19;;;;;;;1.65;0.60;;;;;;;-0.40;67.39;101005.91;5030889;28;20124;-53
2021/11/16 04:41:45;;;;;;;1.73;0.90;;;;;;;-0.51;68.01;101000.47;5025101;28;20253;-54
2021/11/16 04:44:11;;;;;;;1.33;0.77;;;;;;;-0.60;68.35;100991.66;5026489;28;20582;-53
2021/11/16 04:46:38;;;;;;;0.57;0.57;;;;;;;-0.75;68.76;100992.06;5024691;28;20071;-54
2021/11/16 04:49:13;;;;;;;2.03;1.00;;;;;;;-1.04;69.31;100957.03;5020644;28;20042;-50
2021/11/16 05:04:50;;;;;;;1.00;0.60;;;;;;;-1.33;71.53;100968.84;5010547;28;20060;-50
2021/11/16 05:07:18;;;;;;;2.72;0.40;;;;;;;-1.49;71.58;100949.59;5028483;28;20044;-47
2021/11/16 05:09:50;;;;;;;1.35;0.70;;;;;;;-1.45;72.07;100963.31;5030676;28;20061;-48
2021/11/16 05:12:17;;;;;;;2.80;1.38;;;;;;;-1.46;72.20;100962.44;5030945;28;20047;-49
2021/11/16 05:14:43;;;;;;;0.80;0.55;;;;;;;-1.48;72.42;100971.75;5010559;28;20077;-51
2021/11/16 05:17:09;;;;;;;1.65;0.98;;;;;;;-1.49;72.40;100966.59;5024456;28;21948;-49
2021/11/16 05:19:36;;;;;;;0.70;0.50;;;;;;;-1.50;72.99;100973.38;5010363;28;20053;-53
2021/11/16 05:22:02;;;;;;;1.20;0.82;;;;;;;-1.42;72.30;100955.78;5040459;28;20543;-47
2021/11/16 05:24:28;;;;;;;1.95;0.90;;;;;;;-1.39;72.12;100958.44;5023359;28;20052;-48
2021/11/16 05:26:55;;;;;;;4.43;0.88;;;;;;;-1.43;72.49;100960.03;5035737;28;20033;-50
2021/11/16 05:29:21;;;;;;;1.42;0.63;;;;;;;-1.47;72.76;100963.28;5022323;28;20037;-48
2021/11/16 05:31:47;;;;;;;1.25;0.63;;;;;;;-1.65;73.09;100943.91;5015174;28;20100;-50
2021/11/16 05:34:13;;;;;;;3.75;1.08;;;;;;;-1.56;73.33;100955.28;5020808;28;20050;-50
2021/11/16 05:36:39;;;;;;;4.43;0.73;;;;;;;-1.54;73.18;100963.88;5027844;28;20045;-54
2021/11/16 05:39:06;;;;;;;2.03;1.00;;;;;;;-1.51;73.12;100952.91;5010208;28;21449;-49
2021/11/16 05:41:32;;;;;;;3.03;0.80;;;;;;;-1.65;73.34;100929.50;5028887;28;20041;-50
2021/11/16 05:43:58;;;;;;;2.47;0.80;;;;;;;-1.57;73.25;100937.41;5042421;28;20192;-50
2021/11/16 05:46:24;;;;;;;0.85;0.50;;;;;;;-1.55;73.80;100938.31;5031587;28;20412;-51
2021/11/16 05:48:52;;;;;;;4.47;0.65;;;;;;;-1.62;73.78;100903.25;5030194;28;20056;-47
2021/11/16 05:51:19;;;;;;;1.52;0.93;;;;;;;-1.55;73.85;100923.88;5029513;28;20037;-51
2021/11/16 05:53:51;;;;;;;0.93;0.60;;;;;;;-1.56;73.70;100916.19;5029025;28;20143;-50
2021/11/16 05:56:19;;;;;;;1.13;0.52;;;;;;;-1.64;73.84;100903.19;5031986;28;20060;-50
2021/11/16 05:58:45;;;;;;;1.42;1.10;;;;;;;-1.55;74.28;100906.03;5031911;28;20459;-51
2021/11/16 06:01:11;;;;;;;1.60;0.70;;;;;;;-1.57;74.10;100899.16;5030630;28;20046;-51
2021/11/16 06:03:37;;;;;;;2.90;0.80;;;;;;;-1.56;74.09;100909.41;5025865;28;20049;-50
2021/11/16 06:06:03;;;;;;;2.00;1.00;;;;;;;-1.54;74.00;100909.47;5027456;28;20037;-48
2021/11/16 06:08:29;;;;;;;1.73;1.00;;;;;;;-1.52;73.97;100910.38;5012310;28;20042;-50
2021/11/16 06:10:56;;;;;;;1.02;0.60;;;;;;;-1.52;73.88;100907.84;5027426;28;20532;-49
2021/11/16 06:13:23;;;;;;;3.78;0.82;;;;;;;-1.71;73.94;100888.47;5027874;28;20045;-49
2021/11/16 06:15:49;;;;;;;2.08;1.05;;;;;;;-1.67;73.84;100881.81;5011976;28;20046;-50
2021/11/16 06:18:15;;;;;;;1.15;0.93;;;;;;;-1.39;73.53;100902.31;5017941;28;20043;-52
2021/11/16 06:20:43;;;;;;;1.08;0.73;;;;;;;-0.79;71.58;100884.69;5029888;28;20164;-48
2021/11/16 06:23:11;;;;;;;1.15;0.77;;;;;;;0.06;67.71;100853.88;5029865;28;20041;-50
2021/11/16 06:25:38;;;;;;;0.98;0.88;;;;;;;0.92;65.12;100888.47;5010732;28;20421;-49
2021/11/16 06:28:04;;;;;;;3.35;1.00;;;;;;;1.43;62.79;100875.97;5010053;28;20560;-49
2021/11/16 06:30:30;;;;;;;1.20;0.90;;;;;;;1.89;61.13;100888.03;5011668;28;20059;-51
2021/11/16 06:32:56;;;;;;;1.90;1.13;;;;;;;2.21;59.79;100880.97;5011724;28;20092;-50
2021/11/16 06:35:22;;;;;;;1.70;1.10;;;;;;;2.41;59.45;100874.50;5036201;28;20034;-48
2021/11/16 06:37:48;;;;;;;3.15;0.90;;;;;;;2.34;58.98;100868.41;5026814;28;20046;-47
2021/11/16 06:40:16;;;;;;;1.95;0.98;;;;;;;2.41;58.21;100875.34;5010362;28;20045;-48
2021/11/16 06:42:42;;;;;;;2.30;0.80;;;;;;;2.55;57.88;100862.78;5011342;28;20046;-52
2021/11/16 06:45:08;;;;;;;3.67;3.38;;;;;;;2.88;57.59;100865.88;5010655;28;20513;-46
2021/11/16 06:47:34;;;;;;;2.58;2.35;;;;;;;3.13;56.56;100866.25;5011317;28;20048;-48
2021/11/16 06:50:00;;;;;;;2.53;1.25;;;;;;;3.72;55.81;100865.34;5011188;28;20038;-52
2021/11/16 06:52:30;;;;;;;2.90;2.00;;;;;;;4.30;53.86;100868.56;5011323;28;20137;-49
2021/11/16 06:54:56;;;;;;;2.63;1.23;;;;;;;4.41;52.46;100869.53;5018115;28;20053;-50
2021/11/16 06:57:26;;;;;;;7.82;1.30;;;;;;;4.63;52.56;100866.31;5030858;28;20038;-48
2021/11/16 06:59:52;;;;;;;5.18;1.73;;;;;;;4.26;52.89;100867.66;5029918;28;20037;-48
2021/11/16 07:02:22;;;;;;;3.70;1.45;;;;;;;4.20;53.30;100861.59;5028423;28;20136;-47
2021/11/16 07:04:48;;;;;;;2.88;1.05;;;;;;;4.55;52.44;100867.94;5018080;28;20457;-53
2021/11/16 07:07:14;;;;;;;2.53;1.35;;;;;;;4.92;51.37;100868.25;5028272;28;20087;-51
2021/11/16 07:09:41;;;;;;;3.08;1.27;;;;;;;4.35;52.38;100860.88;5030952;28;20045;-52
2021/11/16 07:12:12;;;;;;;9.15;1.98;;;;;;;3.72;53.78;100849.91;5016038;28;20064;-49
2021/11/16 07:14:38;;;;;;;4.93;1.77;;;;;;;3.92;53.72;100850.16;5010803;28;20046;-48
2021/11/16 07:17:06;;;;;;;2.17;0.93;;;;;;;3.79;53.59;100848.28;5023286;28;20065;-50
2021/11/16 07:19:42;;;;;;;1.17;1.07;;;;;;;4.20;52.60;100843.56;5045686;28;20041;-50
2021/11/16 07:22:13;;;;;;;5.03;1.58;;;;;;;4.11;53.07;100841.78;5030549;28;20086;-48
2021/11/16 07:24:49;;;;;;;4.22;1.73;;;;;;;4.33;52.66;100842.88;5030123;28;20505;-50
2021/11/16 07:27:21;;;;;;;5.78;1.70;;;;;;;4.59;52.12;100841.38;5015449;28;20041;-51
2021/11/16 07:29:55;;;;;;;3.70;1.13;;;;;;;4.17;52.33;100812.66;5010616;28;20037;-51
2021/11/16 07:32:30;;;;;;;1.50;1.25;;;;;;;4.00;52.66;100838.22;5010503;28;20037;-50
2021/11/16 07:34:59;;;;;;;3.92;1.90;;;;;;;4.53;52.50;100848.19;5010431;28;20065;-51
2021/11/16 07:37:27;;;;;;;4.85;1.58;;;;;;;4.37;52.41;100844.59;5024327;28;20052;-52
2021/11/16 07:39:56;;;;;;;4.22;1.40;;;;;;;3.96;53.00;100845.91;5017239;28;20091;-53
2021/11/16 07:42:24;;;;;;;4.47;1.75;;;;;;;4.16;52.57;100846.97;5010537;28;20042;-53
2021/11/16 07:45:02;;;;;;;2.67;0.95;;;;;;;4.41;51.55;100856.66;5025406;28;20041;-46
2021/11/16 07:47:43;;;;;;;7.60;1.80;;;;;;;4.32;52.35;100843.69;5010480;28;20544;-49
2021/11/16 07:50:14;;;;;;;1.92;1.17;;;;;;;4.63;51.57;100842.25;5011440;28;20095;-52
2021/11/16 07:52:44;;;;;;;2.58;1.60;;;;;;;4.29;51.99;100841.13;5010451;28;20505;-47
2021/11/16 07:55:21;;;;;;;3.97;1.50;;;;;;;4.44;52.00;100824.94;5010005;28;20057;-52
2021/11/16 07:57:47;;;;;;;4.55;1.60;;;;;;;5.00;50.78;100821.06;5010092;28;20049;-47
2021/11/16 08:00:27;;;;;;;2.75;1.02;;;;;;;5.04;50.20;100830.53;5019726;28;20041;-50
2021/11/16 08:03:01;;;;;;;3.22;1.20;;;;;;;5.11;49.90;100814.25;5029772;28;20033;-49
2021/11/16 08:11:09;;;;;;;3.17;1.48;;;;;;;6.08;47.71;100808.63;5013326;28;20081;-46
2021/11/16 08:13:35;;;;;;;2.78;1.85;;;;;;;6.28;47.52;100806.94;5009981;28;20034;-52
2021/11/16 08:16:09;;;;;;;2.03;1.20;;;;;;;6.91;45.64;100815.53;5009985;28;20048;-50
2021/11/16 08:18:55;;;;;;;3.25;1.85;;;;;;;7.04;45.47;100783.66;5008550;28;20091;-49
2021/11/16 08:21:22;;;;;;;4.07;1.52;;;;;;;7.49;43.80;100795.56;5028271;28;20044;-47
2021/11/16 08:23:53;;;;;;;3.03;1.75;;;;;;;8.14;43.88;100790.91;5028448;28;20607;-49
2021/11/16 08:26:20;;;;;;;4.25;2.20;;;;;;;8.56;42.37;100775.06;5029350;28;20148;-50
2021/11/16 08:28:48;;;;;;;9.30;4.75;;;;;;;8.96;41.67;100772.06;5029541;28;20080;-47
2021/11/16 08:31:15;;;;;;;5.28;2.80;;;;;;;9.27;40.50;100763.94;5012394;28;20152;-49
2021/11/16 08:33:41;;;;;;;3.85;1.75;;;;;;;9.21;40.15;100750.19;5021298;28;20069;-52
2021/11/16 08:36:07;;;;;;;7.50;3.28;;;;;;;9.03;40.82;100748.66;5010153;28;20037;-52
2021/11/16 08:38:38;;;;;;;4.05;1.85;;;;;;;9.47;39.67;100740.34;5039348;28;20042;-49
2021/11/16 08:41:04;;;;;;;1.95;1.20;;;;;;;9.43;39.11;100748.19;5045679;28;20073;-47
2021/11/16 08:43:36;;;;;;;2.42;1.60;;;;;;;9.15;39.66;100742.47;5042358;28;20068;-50
2021/11/16 08:46:04;;;;;;;2.08;1.10;;;;;;;9.02;39.61;100754.72;5018286;28;20041;-48
2021/11/16 08:48:31;;;;;;;6.50;2.50;;;;;;;8.51;40.85;100745.72;5018657;28;20536;-48
2021/11/16 08:51:02;;;;;;;6.00;1.92;;;;;;;8.49;40.83;100742.28;5031392;28;20045;-49
2021/11/16 08:53:33;;;;;;;5.95;2.30;;;;;;;8.77;40.72;100729.94;5029518;28;20068;-50
2021/11/16 08:56:04;;;;;;;3.88;1.70;;;;;;;9.14;40.05;100720.00;5028167;28;20034;-48
2021/11/16 08:58:30;;;;;;;3.55;2.13;;;;;;;8.76;40.69;100715.22;5013510;28;20045;-51
2021/11/16 09:00:58;;;;;;;3.28;2.10;;;;;;;8.51;40.40;100701.66;5019723;28;20086;-50
2021/11/16 09:03:30;;;;;;;3.60;2.53;;;;;;;8.54;40.78;100693.84;5013374;28;20469;-50
2021/11/16 09:05:58;;;;;;;9.55;3.00;;;;;;;7.83;41.74;100689.25;5044606;28;20069;-48
2021/11/16 09:08:32;;;;;;;3.60;1.38;;;;;;;7.83;41.82;100690.13;5016678;28;20038;-51
2021/11/16 09:11:14;;;;;;;3.35;1.40;;;;;;;7.60;41.95;100695.44;5044679;28;20038;-51
2021/11/16 09:13:40;;;;;;;4.07;2.08;;;;;;;7.74;41.89;100677.25;5015420;28;20092;-51
2021/11/16 09:16:18;;;;;;;4.53;1.80;;;;;;;7.94;41.62;100665.00;5012625;28;20052;-50
2021/11/16 09:18:49;;;;;;;2.47;1.48;;;;;;;8.25;41.00;100688.06;5020265;28;20069;-51
2021/11/16 09:21:19;;;;;;;5.75;1.85;;;;;;;9.01;39.64;100692.47;5022371;28;20041;-51
2021/11/16 09:23:50;;;;;;;4.15;2.38;;;;;;;9.60;39.33;100705.53;5025738;28;20041;-48
2021/11/16 09:28:55;;;;;;;2.15;1.48;;;;;;;9.58;38.40;100696.06;5029020;28;20472;-50
2021/11/16 09:31:35;;;;;;;5.88;1.98;;;;;;;9.33;39.14;100711.09;5016847;28;20041;-49
2021/11/16 09:34:07;;;;;;;4.70;1.95;;;;;;;9.19;39.54;100693.13;5012881;28;20156;-52
2021/11/16 09:36:38;;;;;;;8.00;2.10;;;;;;;7.79;41.21;100687.56;5011387;28;20046;-48
2021/11/16 09:39:08;;;;;;;4.25;1.73;;;;;;;6.32;44.19;100676.97;5032334;28;20041;-51
2021/11/16 09:41:33;;;;;;;4.03;1.88;;;;;;;5.23;47.49;100689.72;5032495;28;20041;-49
2021/11/16 09:44:23;;;;;;;6.10;2.30;;;;;;;4.69;48.59;100662.00;5032386;28;20041;-53
2021/11/16 09:46:49;;;;;;;3.03;1.80;;;;;;;4.50;49.52;100675.66;5027731;28;20091;-50
2021/11/16 09:49:18;;;;;;;4.35;2.00;;;;;;;3.94;50.68;100663.22;5013601;28;20220;-47
2021/11/16 09:52:00;;;;;;;8.85;2.38;;;;;;;3.64;52.15;100660.38;5011054;28;20065;-47
2021/11/16 09:54:26;;;;;;;2.72;1.10;;;;;;;3.34;53.19;100663.53;5027516;28;20057;-54
2021/11/16 09:57:13;;;;;;;3.67;1.52;;;;;;;2.92;54.19;100646.78;5012403;28;20044;-52
2021/11/16 09:59:41;;;;;;;4.80;1.65;;;;;;;2.68;54.96;100648.16;5030629;28;20127;-53
2021/11/16 10:02:08;;;;;;;5.10;1.98;;;;;;;2.44;55.55;100652.16;5030857;28;20047;-48
2021/11/16 10:04:42;;;;;;;2.85;1.30;;;;;;;2.21;56.14;100632.97;5031865;28;20045;-47
2021/11/16 10:07:08;;;;;;;5.95;1.83;;;;;;;2.31;56.25;100650.22;5030780;28;20120;-49
2021/11/16 10:09:34;;;;;;;3.83;2.08;;;;;;;2.41;55.83;100636.69;5014403;28;20152;-50
2021/11/16 10:11:59;;;;;;;4.15;2.00;;;;;;;2.28;56.48;100646.78;5012065;28;20049;-49
2021/11/16 10:14:26;;;;;;;2.88;1.95;;;;;;;2.11;57.40;100641.38;5010496;28;20424;-49
2021/11/16 10:16:52;;;;;;;5.38;2.10;;;;;;;2.00;57.51;100628.41;5011947;28;20073;-47
2021/11/16 10:19:18;;;;;;;7.00;2.30;;;;;;;2.01;57.96;100637.81;5025723;28;20077;-53
2021/11/16 10:21:44;;;;;;;6.57;2.10;;;;;;;1.91;58.23;100635.97;5031492;28;20147;-50
2021/11/16 10:24:30;;;;;;;1.85;1.50;;;;;;;1.84;58.42;100623.88;5030466;28;20041;-48
2021/11/16 10:27:01;;;;;;;2.80;1.73;;;;;;;1.90;58.29;100639.34;5031655;28;20448;-52
2021/11/16 10:29:27;;;;;;;3.28;1.98;;;;;;;2.33;58.15;100615.22;5017263;28;20037;-50
2021/11/16 10:31:53;;;;;;;4.07;1.80;;;;;;;3.87;55.00;100615.16;5011743;28;20429;-49
2021/11/16 10:34:35;;;;;;;4.38;1.80;;;;;;;5.30;50.60;100602.94;5011511;28;20041;-52
2021/11/16 10:37:06;;;;;;;3.90;1.50;;;;;;;6.44;47.69;100605.50;5026554;28;20038;-54
2021/11/16 10:39:32;;;;;;;2.80;1.90;;;;;;;6.77;46.05;100603.63;5011023;28;20038;-51
2021/11/16 10:41:58;;;;;;;2.95;1.80;;;;;;;7.39;44.44;100602.44;5011114;28;20065;-48
2021/11/16 10:44:24;;;;;;;4.88;2.08;;;;;;;8.02;44.09;100601.06;5009988;28;20524;-49
2021/11/16 10:46:50;;;;;;;3.88;2.08;;;;;;;8.56;41.43;100619.53;5024803;28;20119;-50
2021/11/16 10:49:19;;;;;;;4.28;1.77;;;;;;;8.32;41.19;100605.09;5028488;28;20049;-51
2021/11/16 10:51:47;;;;;;;4.23;1.73;;;;;;;8.18;41.05;100604.34;5029023;28;20041;-49
2021/11/16 10:54:13;;;;;;;2.03;1.40;;;;;;;8.42;40.54;100598.97;5041237;28;20057;-47
2021/11/16 10:56:40;;;;;;;3.47;2.13;;;;;;;8.42;40.20;100587.75;5028333;28;20041;-52
2021/11/16 10:59:16;;;;;;;4.55;2.00;;;;;;;8.30;40.89;100593.06;5027605;28;20055;-51
2021/11/16 11:01:43;;;;;;;4.65;2.28;;;;;;;9.23;39.86;100595.34;5031059;28;20456;-46
2021/11/16 11:04:12;;;;;;;5.53;2.25;;;;;;;9.35;38.70;100589.97;5029184;28;20413;-46
2021/11/16 11:06:39;;;;;;;3.38;1.98;;;;;;;9.12;37.98;100576.47;5014662;28;20065;-47
2021/11/16 11:09:06;;;;;;;2.63;1.67;;;;;;;9.24;38.18;100566.78;5010694;28;20064;-48
2021/11/16 11:11:34;;;;;;;3.65;2.00;;;;;;;9.00;38.16;100572.34;5018038;28;20041;-53
2021/11/16 11:14:16;;;;;;;3.03;2.00;;;;;;;8.84;38.47;100574.28;5010518;28;20049;-49
2021/11/16 11:16:56;;;;;;;3.67;1.48;;;;;;;9.02;38.22;100577.47;5009487;28;20046;-49
2021/11/16 11:19:35;;;;;;;2.78;1.65;;;;;;;9.03;38.30;100586.97;5024040;28;20033;-50
2021/11/16 11:22:23;;;;;;;5.28;3.50;;;;;;;8.72;38.55;100570.97;5009316;28;20100;-47
2021/11/16 11:24:59;;;;;;;2.90;1.90;;;;;;;8.75;38.43;100571.78;5010354;28;20509;-48
2021/11/16 11:27:40;;;;;;;3.35;1.73;;;;;;;8.88;38.36;100555.19;5022733;28;20421;-46
2021/11/16 11:30:12;;;;;;;3.13;1.85;;;;;;;8.95;38.27;100584.47;5028979;28;20069;-47
2021/11/16 11:32:41;;;;;;;4.63;2.35;;;;;;;8.69;38.61;100578.78;5028365;28;20485;-53
2021/11/16 11:35:10;;;;;;;5.63;1.95;;;;;;;8.55;38.65;100575.50;5009019;28;20052;-54
2021/11/16 11:37:37;;;;;;;;;;;;;;;8.61;38.99;100581.47;5010583;28;20045;-51
2021/11/16 11:40:10;;;;;;;5.10;2.15;;;;;;;8.20;38.85;100571.53;5041617;28;19928;-47
2021/11/16 11:42:48;;;;;;;2.95;1.88;;;;;;;7.75;39.30;100585.75;5030022;28;20037;-48
2021/11/16 11:45:21;;;;;;;5.53;1.80;;;;;;;7.75;39.71;100566.78;5011052;28;20468;-51
2021/11/16 11:47:50;;;;;;;5.60;2.10;;;;;;;7.60;40.10;100571.22;5009934;28;20533;-49
2021/11/16 11:50:27;;;;;;;7.03;2.30;;;;;;;7.52;40.25;100562.69;5010449;28;20125;-49
2021/11/16 11:52:53;;;;;;;5.03;2.10;;;;;;;7.53;40.19;100559.22;5010239;28;20038;-49
2021/11/16 11:55:20;;;;;;;7.28;2.40;;;;;;;7.57;39.98;100576.44;5043186;28;20045;-51
2021/11/16 11:57:46;;;;;;;3.92;2.03;;;;;;;7.27;40.44;100555.09;5028981;28;20061;-50